Terminal Aerodrome Forecast
Issued by NWS

Home | Current Version | Previous Version | Text Only | Print | Product List | Glossary On
Versions: 1 2 3 4 5 6 7 8 9 10 11 12 13 14 15 16 17
000
FTUS43 KDLH 212334
TAFHYR
TAF
KHYR 212334Z 2200/2224 17013G18KT P6SM OVC020
     FM220200 18011KT P6SM VCTS OVC018CB
      TEMPO 2202/2204 5SM -TSRA BR OVC010CB
     FM220500 23006KT 6SM -SHRA BR OVC025
     FM221000 25005KT P6SM BKN040
     FM221700 25007KT P6SM SCT150=

USA.gov is the U.S. government's official web portal to all federal, state and local government web resources and services.